Time;durP1;ratioP1;P1;durP2;ratioP2;P2;SDS_P1;SDS_P2;PMS_P1;PMS_P2;Temp;Humidity;BMP_temperature;BMP_pressure;BME280_temperature;BME280_humidity;BME280_pressure;Samples;Min_cycle;Max_cycle;Signal;HPM_P1;HPM_P2
2024/02/25 00:01:09;;;;;;;9.27;7.35;;;;;;;11.76;100.00;100533.28;5085220;28;20587;-74
2024/02/25 00:03:35;;;;;;;7.00;5.43;;;;;;;11.36;100.00;100440.56;5067511;28;20040;-74
2024/02/25 00:06:00;;;;;;;7.40;6.65;;;;;;;11.87;100.00;100548.16;5082794;28;20028;-74
2024/02/25 00:08:27;;;;;;;7.32;6.70;;;;;;;10.98;100.00;100389.00;5078563;28;20055;-74
2024/02/25 00:10:52;;;;;;;15.18;8.40;;;;;;;11.68;100.00;100513.16;5085068;28;20491;-74
2024/02/25 00:13:18;;;;;;;5.90;4.50;;;;;;;11.04;100.00;100372.34;5085302;28;20036;-74
2024/02/25 00:15:43;;;;;;;5.68;4.80;;;;;;;11.32;100.00;100436.19;5085014;28;20060;-74
2024/02/25 00:18:09;;;;;;;13.73;5.85;;;;;;;11.94;100.00;100534.13;5085808;28;20099;-73
2024/02/25 00:20:35;;;;;;;4.60;3.05;;;;;;;11.78;100.00;100533.28;5085057;28;20150;-74
2024/02/25 00:23:00;;;;;;;12.57;8.60;;;;;;;11.35;100.00;100446.66;5085031;28;20119;-74
2024/02/25 00:25:26;;;;;;;5.68;5.28;;;;;;;11.28;100.00;100443.19;5084734;28;20113;-75
2024/02/25 00:27:51;;;;;;;9.02;8.10;;;;;;;11.86;100.00;100530.63;5066994;28;20135;-73
2024/02/25 00:30:17;;;;;;;10.30;6.05;;;;;;;11.78;100.00;100520.16;5083491;28;21484;-75
2024/02/25 00:32:42;;;;;;;5.80;5.30;;;;;;;11.11;100.00;100426.59;5063951;28;20048;-75
2024/02/25 00:35:08;;;;;;;7.43;6.35;;;;;;;11.74;100.00;100529.78;5084363;28;20032;-75
2024/02/25 00:37:34;;;;;;;9.90;6.72;;;;;;;11.34;100.00;100443.19;5085997;28;20125;-75
2024/02/25 00:40:00;;;;;;;6.78;6.28;;;;;;;11.55;100.00;100491.31;5070262;28;20032;-76
2024/02/25 00:42:26;;;;;;;6.50;6.00;;;;;;;11.75;100.00;100534.19;5088771;28;20479;-74
2024/02/25 00:44:53;;;;;;;6.05;4.65;;;;;;;11.81;100.00;100531.50;5083438;28;20093;-75
2024/02/25 00:47:18;;;;;;;11.75;9.32;;;;;;;11.32;100.00;100425.69;5069685;28;20131;-74
2024/02/25 00:49:44;;;;;;;11.18;7.70;;;;;;;11.59;100.00;100529.84;5069708;28;20185;-74
2024/02/25 00:52:09;;;;;;;13.95;6.65;;;;;;;11.14;100.00;100453.75;5086340;28;20119;-75
2024/02/25 00:54:37;;;;;;;6.95;5.88;;;;;;;11.45;100.00;100531.59;5075055;28;20471;-73
2024/02/25 00:57:03;;;;;;;6.70;4.65;;;;;;;11.48;100.00;100535.09;5089140;28;20484;-73
2024/02/25 00:59:29;;;;;;;5.47;4.97;;;;;;;11.46;100.00;100534.22;5087220;28;20338;-73
2024/02/25 01:01:55;;;;;;;6.35;5.85;;;;;;;11.31;100.00;100500.13;5087799;28;20105;-73
2024/02/25 01:04:21;;;;;;;8.43;7.45;;;;;;;11.66;100.00;100541.19;5075352;28;20738;-74
2024/02/25 01:06:48;;;;;;;10.07;6.85;;;;;;;11.20;100.00;100440.56;5088548;28;20082;-75
2024/02/25 01:09:14;;;;;;;11.73;6.95;;;;;;;11.72;100.00;100538.56;5066901;28;20067;-73
2024/02/25 01:11:39;;;;;;;7.43;6.15;;;;;;;11.58;100.00;100507.06;5091774;28;20055;-75
2024/02/25 01:14:05;;;;;;;7.28;6.40;;;;;;;11.68;100.00;100527.16;5087591;28;20036;-75
2024/02/25 01:16:32;;;;;;;9.82;8.88;;;;;;;11.72;100.00;100536.78;5089741;28;20071;-74
2024/02/25 01:18:57;;;;;;;10.77;5.00;;;;;;;10.98;100.00;100428.38;5088153;28;20570;-73
2024/02/25 01:21:23;;;;;;;5.47;4.97;;;;;;;11.61;100.00;100536.84;5085427;28;20024;-73
2024/02/25 01:23:49;;;;;;;5.72;5.15;;;;;;;10.66;100.00;100404.78;5088467;28;20050;-73
2024/02/25 01:26:15;;;;;;;10.35;7.00;;;;;;;11.51;100.00;100529.84;5069014;28;20044;-74
2024/02/25 01:28:40;;;;;;;5.00;4.57;;;;;;;10.88;100.00;100426.63;5085356;28;20055;-73
2024/02/25 01:31:06;;;;;;;11.82;7.35;;;;;;;11.14;100.00;100466.88;5081970;28;20048;-74
2024/02/25 01:33:31;;;;;;;10.68;6.20;;;;;;;11.24;100.00;100453.69;5069306;28;20048;-74
2024/02/25 01:35:58;;;;;;;5.40;4.90;;;;;;;11.41;100.00;100481.69;5068346;28;20036;-73
2024/02/25 01:38:24;;;;;;;6.03;5.53;;;;;;;11.81;100.00;100531.50;5063523;28;20484;-75
2024/02/25 01:40:49;;;;;;;10.30;7.55;;;;;;;11.82;100.00;100528.03;5067478;28;20048;-75
2024/02/25 01:43:17;;;;;;;7.72;7.00;;;;;;;11.70;100.00;100508.78;5058367;28;20106;-74
2024/02/25 01:45:43;;;;;;;9.13;6.82;;;;;;;11.77;100.00;100539.41;5067934;28;20045;-75
2024/02/25 01:48:09;;;;;;;7.82;7.13;;;;;;;11.59;100.00;100522.81;5067989;28;20056;-73
2024/02/25 01:50:36;;;;;;;7.57;5.32;;;;;;;11.56;100.00;100530.69;5058560;28;20052;-74
2024/02/25 01:53:02;;;;;;;8.02;6.22;;;;;;;11.07;100.00;100430.09;5067459;28;20087;-73
2024/02/25 01:55:33;;;;;;;6.68;6.00;;;;;;;11.66;100.00;100518.44;5062876;28;20076;-74
2024/02/25 01:58:01;;;;;;;6.78;6.10;;;;;;;11.63;100.00;100539.44;5069500;28;20139;-75
2024/02/25 02:00:28;;;;;;;10.55;6.20;;;;;;;11.51;100.00;100534.22;5068967;28;20034;-73
2024/02/25 02:02:54;;;;;;;13.88;8.32;;;;;;;10.64;100.00;100348.81;5067175;28;20527;-73
2024/02/25 02:05:19;;;;;;;5.47;4.95;;;;;;;11.50;100.00;100501.81;5071141;28;20264;-73
2024/02/25 02:07:48;;;;;;;8.48;7.47;;;;;;;11.10;100.00;100428.34;5066761;28;20040;-74
2024/02/25 02:10:17;;;;;;;9.30;8.35;;;;;;;11.17;100.00;100437.97;5066708;28;20042;-74
2024/02/25 02:12:44;;;;;;;21.95;7.68;;;;;;;11.57;100.00;100503.56;5066092;28;20040;-73
2024/02/25 02:15:10;;;;;;;8.48;7.65;;;;;;;11.12;100.00;100430.97;5067569;28;20032;-73
2024/02/25 02:17:40;;;;;;;10.02;9.02;;;;;;;11.75;100.00;100525.41;5073599;28;20032;-73
2024/02/25 02:20:18;;;;;;;6.82;4.80;;;;;;;11.76;100.00;100530.66;5048917;28;20040;-74
2024/02/25 02:22:44;;;;;;;8.63;6.57;;;;;;;11.72;100.00;100543.81;5066186;28;20045;-75
2024/02/25 02:25:10;;;;;;;8.48;6.65;;;;;;;11.57;100.00;100506.19;5066020;28;20044;-74
2024/02/25 02:27:39;;;;;;;8.13;6.47;;;;;;;11.55;100.00;100505.31;5071514;28;20082;-75
2024/02/25 02:30:06;;;;;;;14.55;7.55;;;;;;;11.12;100.00;100442.38;5066647;28;20028;-74
2024/02/25 02:32:32;;;;;;;10.00;7.97;;;;;;;11.02;100.00;100445.00;5056523;28;20056;-74
2024/02/25 02:34:58;;;;;;;7.50;6.75;;;;;;;11.55;100.00;100528.97;5067697;28;20048;-74
2024/02/25 02:37:23;;;;;;;7.03;6.25;;;;;;;11.70;100.00;100533.28;5067560;28;20506;-74
2024/02/25 02:39:49;;;;;;;7.43;6.22;;;;;;;11.52;100.00;100521.09;5068628;28;20040;-74
2024/02/25 02:42:14;;;;;;;8.95;5.75;;;;;;;11.60;100.00;100529.81;5085973;28;20177;-74
2024/02/25 02:44:45;;;;;;;8.70;7.05;;;;;;;11.60;100.00;100529.81;5086384;28;20036;-74
2024/02/25 02:47:12;;;;;;;9.48;8.43;;;;;;;11.56;100.00;100535.94;5068454;28;20090;-75
2024/02/25 02:49:38;;;;;;;7.53;5.68;;;;;;;10.91;100.00;100418.75;5085910;28;20037;-75
2024/02/25 02:52:04;;;;;;;6.55;5.95;;;;;;;11.61;100.00;100523.69;5090745;28;20052;-74
2024/02/25 02:54:30;;;;;;;10.68;9.63;;;;;;;11.21;100.00;100446.69;5085573;28;20169;-74
2024/02/25 02:56:56;;;;;;;7.47;5.80;;;;;;;11.11;100.00;100419.59;5086704;28;20028;-73
2024/02/25 02:59:23;;;;;;;6.68;5.93;;;;;;;11.16;100.00;100422.22;5086244;28;20085;-75
2024/02/25 03:01:49;;;;;;;10.05;7.78;;;;;;;11.70;100.00;100524.53;5090162;28;20443;-74
2024/02/25 03:04:14;;;;;;;7.30;6.47;;;;;;;11.79;100.00;100529.78;5085766;28;20040;-73
2024/02/25 03:06:40;;;;;;;5.38;4.88;;;;;;;11.51;100.00;100497.44;5084458;28;20051;-73
2024/02/25 03:09:06;;;;;;;10.57;6.68;;;;;;;11.74;100.00;100539.44;5086164;28;20700;-75
2024/02/25 03:11:31;;;;;;;7.55;6.35;;;;;;;11.13;100.00;100436.22;5087033;28;20428;-72
2024/02/25 03:13:57;;;;;;;15.00;10.20;;;;;;;11.09;100.00;100441.47;5086616;28;20071;-74
2024/02/25 03:16:22;;;;;;;6.85;6.35;;;;;;;11.59;100.00;100532.47;5092240;28;20044;-73
2024/02/25 03:18:48;;;;;;;6.03;5.53;;;;;;;11.05;100.00;100429.22;5086143;28;20097;-73
2024/02/25 03:21:13;;;;;;;5.53;5.03;;;;;;;11.69;100.00;100543.84;5085687;28;20323;-73
2024/02/25 03:23:39;;;;;;;7.88;7.07;;;;;;;11.20;100.00;100458.97;5086296;28;20027;-73
2024/02/25 03:26:05;;;;;;;7.45;5.28;;;;;;;11.23;100.00;100438.81;5090806;28;20419;-74
2024/02/25 03:28:30;;;;;;;5.50;4.97;;;;;;;11.51;100.00;100507.94;5085378;28;20436;-73
2024/02/25 03:30:56;;;;;;;8.07;6.38;;;;;;;11.23;100.00;100471.22;5065620;28;20847;-74
2024/02/25 03:33:21;;;;;;;9.50;7.55;;;;;;;11.70;100.00;100556.94;5085246;28;20482;-76
2024/02/25 03:35:47;;;;;;;11.45;8.18;;;;;;;11.00;100.00;100444.97;5088238;28;20032;-73
2024/02/25 03:38:13;;;;;;;4.45;3.95;;;;;;;11.46;100.00;100536.84;5085770;28;20078;-73
2024/02/25 03:40:38;;;;;;;8.63;7.82;;;;;;;11.01;100.00;100469.50;5085640;28;20054;-74
2024/02/25 03:43:04;;;;;;;7.60;6.15;;;;;;;11.23;100.00;100525.50;5085415;28;20051;-75
2024/02/25 03:45:30;;;;;;;9.35;7.20;;;;;;;11.46;100.00;100570.16;5086766;28;20096;-74
2024/02/25 03:47:56;;;;;;;12.13;6.00;;;;;;;11.29;100.00;100554.41;5067613;28;20043;-73
2024/02/25 03:50:21;;;;;;;11.10;9.98;;;;;;;10.86;100.00;100468.63;5085391;28;20056;-73
2024/02/25 03:52:47;;;;;;;6.93;5.35;;;;;;;11.42;100.00;100543.00;5084961;28;20051;-73
2024/02/25 03:55:12;;;;;;;9.80;6.15;;;;;;;11.64;100.00;100577.16;5085044;28;20029;-73
2024/02/25 03:57:38;;;;;;;7.10;6.47;;;;;;;11.33;100.00;100540.38;5086526;28;20086;-73
2024/02/25 04:00:08;;;;;;;11.85;10.13;;;;;;;11.23;100.00;100550.00;5085772;28;20055;-73
2024/02/25 04:02:33;;;;;;;12.73;8.82;;;;;;;10.89;100.00;100492.25;5085467;28;20085;-73
2024/02/25 04:04:59;;;;;;;9.57;8.70;;;;;;;11.22;100.00;100576.31;5085335;28;20102;-74
2024/02/25 04:07:25;;;;;;;6.82;6.15;;;;;;;10.61;100.00;100461.66;5085552;28;20056;-74
2024/02/25 04:09:51;;;;;;;5.55;5.07;;;;;;;11.17;100.00;100529.03;5088020;28;20081;-74
2024/02/25 04:12:16;;;;;;;7.63;6.90;;;;;;;11.40;100.00;100560.50;5086577;28;20040;-74
2024/02/25 04:14:42;;;;;;;10.00;9.18;;;;;;;10.86;100.00;100473.00;5089894;28;20072;-74
2024/02/25 04:17:07;;;;;;;12.43;7.55;;;;;;;10.90;100.00;100482.63;5101392;28;20035;-74
2024/02/25 04:19:33;;;;;;;7.20;5.65;;;;;;;11.60;100.00;100581.50;5091302;28;20036;-74
2024/02/25 04:21:58;;;;;;;9.20;5.18;;;;;;;10.88;100.00;100476.50;5090947;28;20040;-74
2024/02/25 04:24:24;;;;;;;6.35;5.85;;;;;;;11.06;100.00;100492.25;5082661;28;20032;-74
2024/02/25 04:26:50;;;;;;;15.30;7.15;;;;;;;11.49;100.00;100554.38;5093477;28;20068;-75
2024/02/25 04:29:15;;;;;;;9.43;7.57;;;;;;;10.97;100.00;100466.00;5090718;28;20143;-76
2024/02/25 04:31:48;;;;;;;9.18;7.88;;;;;;;11.69;100.00;100568.34;5086004;28;20062;-73
2024/02/25 04:34:13;;;;;;;1.40;1.35;;;;;;;11.19;100.00;100494.00;5088905;28;20052;-75
2024/02/25 04:36:39;;;;;;;11.13;6.95;;;;;;;11.48;100.00;100564.00;5088587;28;20048;-74
2024/02/25 04:39:06;;;;;;;8.00;7.30;;;;;;;11.37;100.00;100558.75;5089259;28;20032;-73
2024/02/25 04:41:31;;;;;;;8.43;6.88;;;;;;;11.67;100.00;100577.13;5088370;28;20040;-73
2024/02/25 04:43:57;;;;;;;15.60;8.93;;;;;;;11.30;100.00;100504.47;5088886;28;20040;-74
2024/02/25 04:46:23;;;;;;;9.43;6.78;;;;;;;11.46;100.00;100515.84;5088724;28;20043;-74
2024/02/25 04:48:49;;;;;;;9.38;7.90;;;;;;;11.49;100.00;100517.59;5088994;28;20032;-74
2024/02/25 04:51:15;;;;;;;5.00;4.60;;;;;;;11.32;100.00;100491.34;5088137;28;20073;-75
2024/02/25 04:53:41;;;;;;;11.57;7.28;;;;;;;11.71;100.00;100574.50;5089203;28;20088;-73
2024/02/25 04:56:07;;;;;;;8.73;7.68;;;;;;;11.59;100.00;100559.63;5069631;28;20063;-73
2024/02/25 04:58:33;;;;;;;9.07;7.20;;;;;;;10.96;100.00;100532.53;5089773;28;20040;-75
2024/02/25 05:00:58;;;;;;;9.48;6.53;;;;;;;11.38;100.00;100571.03;5071148;28;20373;-74
2024/02/25 05:03:24;;;;;;;11.10;6.85;;;;;;;11.12;100.00;100504.50;5087921;28;20123;-74
2024/02/25 05:05:51;;;;;;;12.23;9.27;;;;;;;11.46;100.00;100570.16;5088824;28;20058;-74
2024/02/25 05:08:17;;;;;;;9.57;7.80;;;;;;;11.43;100.00;100581.53;5068789;28;20647;-73
2024/02/25 05:10:42;;;;;;;9.10;6.82;;;;;;;11.27;100.00;100532.50;5089091;28;20048;-75
2024/02/25 05:13:08;;;;;;;16.67;7.65;;;;;;;11.18;100.00;100494.00;5088451;28;20100;-74
2024/02/25 05:15:34;;;;;;;8.48;6.22;;;;;;;11.84;100.00;100591.97;5092215;28;20455;-73
2024/02/25 05:18:01;;;;;;;7.65;6.50;;;;;;;11.39;100.00;100575.41;5093619;28;20475;-72
2024/02/25 05:20:27;;;;;;;10.00;7.72;;;;;;;11.10;100.00;100548.28;5067523;28;20134;-73
2024/02/25 05:22:53;;;;;;;9.48;6.88;;;;;;;10.53;100.00;100472.13;5068498;28;20534;-73
2024/02/25 05:25:19;;;;;;;7.85;7.15;;;;;;;10.78;100.00;100492.25;5092691;28;20044;-74
2024/02/25 05:27:44;;;;;;;8.77;6.88;;;;;;;10.96;100.00;100520.28;5088070;28;20494;-74
2024/02/25 05:30:11;;;;;;;9.38;7.85;;;;;;;11.50;100.00;100599.06;5092296;28;20024;-75
2024/02/25 05:32:36;;;;;;;7.20;6.50;;;;;;;10.94;100.00;100508.03;5082570;28;20055;-74
2024/02/25 05:35:05;;;;;;;7.13;5.53;;;;;;;10.90;100.00;100538.63;5049144;28;20491;-74
2024/02/25 05:37:30;;;;;;;8.88;8.20;;;;;;;11.49;100.00;100634.06;5069904;28;20480;-73
2024/02/25 05:39:56;;;;;;;8.25;7.03;;;;;;;11.10;100.00;100535.16;5069381;28;20098;-75
2024/02/25 05:42:22;;;;;;;9.43;8.55;;;;;;;11.74;100.00;100634.06;5071802;28;20111;-75
2024/02/25 05:44:48;;;;;;;12.95;7.68;;;;;;;11.56;100.00;100622.69;5070668;28;20087;-75
2024/02/25 05:47:14;;;;;;;5.57;5.07;;;;;;;11.37;100.00;100640.19;5069190;28;20048;-73
2024/02/25 05:49:40;;;;;;;6.90;6.28;;;;;;;11.50;100.00;100645.47;5070250;28;20040;-75
2024/02/25 05:52:05;;;;;;;11.23;9.82;;;;;;;11.55;100.00;100643.72;5072101;28;20055;-75
2024/02/25 05:54:32;;;;;;;6.60;6.00;;;;;;;11.50;100.00;100633.22;5044808;28;20091;-75
2024/02/25 05:56:58;;;;;;;6.82;6.22;;;;;;;11.28;100.00;100602.56;5069588;28;20033;-74
2024/02/25 05:59:23;;;;;;;9.30;8.02;;;;;;;11.26;100.00;100641.06;5069866;28;20943;-75
2024/02/25 06:01:49;;;;;;;8.10;6.45;;;;;;;10.72;100.00;100538.59;5074959;28;20386;-74
2024/02/25 06:04:16;;;;;;;9.23;6.43;;;;;;;11.16;100.00;100613.94;5068616;28;20063;-74
2024/02/25 06:06:48;;;;;;;7.43;6.78;;;;;;;11.43;100.00;100630.59;5067821;28;20806;-73
2024/02/25 06:09:14;;;;;;;16.02;6.97;;;;;;;11.13;100.00;100580.66;5071929;28;20107;-74
2024/02/25 06:11:40;;;;;;;5.97;5.38;;;;;;;11.47;100.00;100632.31;5074800;28;20906;-73
2024/02/25 06:14:06;;;;;;;5.82;5.25;;;;;;;11.69;100.00;100655.09;5072963;28;20102;-75
2024/02/25 06:16:32;;;;;;;6.93;6.28;;;;;;;11.32;100.00;100602.56;5068021;28;20548;-75
2024/02/25 06:19:00;;;;;;;4.95;4.45;;;;;;;11.13;100.00;100564.91;5069564;28;20033;-74
2024/02/25 06:21:26;;;;;;;8.32;7.32;;;;;;;11.74;100.00;100666.47;5060526;28;20031;-74
2024/02/25 06:23:51;;;;;;;14.77;8.38;;;;;;;11.55;100.00;100664.75;5068795;28;20036;-75
2024/02/25 06:26:17;;;;;;;6.68;5.32;;;;;;;11.46;100.00;100649.84;5070672;28;20420;-76
2024/02/25 06:28:42;;;;;;;15.23;10.95;;;;;;;11.53;100.00;100659.47;5071039;28;20400;-75
2024/02/25 06:31:11;;;;;;;8.77;7.80;;;;;;;11.35;100.00;100623.56;5065868;28;20408;-75
2024/02/25 06:33:37;;;;;;;8.20;7.38;;;;;;;11.68;100.00;100681.38;5061291;28;20052;-76
2024/02/25 06:36:03;;;;;;;6.97;6.38;;;;;;;10.78;100.00;100576.25;5062466;28;20052;-76
2024/02/25 06:38:28;;;;;;;8.25;7.43;;;;;;;10.91;100.00;100592.91;5060691;28;20044;-76
2024/02/25 06:40:54;;;;;;;10.07;7.63;;;;;;;11.54;100.00;100702.41;5062879;28;20168;-75
2024/02/25 06:43:19;;;;;;;9.95;8.18;;;;;;;11.08;100.00;100616.56;5062280;28;20083;-77
2024/02/25 06:45:46;;;;;;;9.43;8.25;;;;;;;10.96;100.00;100611.28;5059513;28;20563;-77
2024/02/25 06:48:12;;;;;;;10.82;8.48;;;;;;;11.54;100.00;100700.66;5063660;28;20036;-75
2024/02/25 06:50:37;;;;;;;8.77;8.02;;;;;;;11.04;100.00;100603.41;5063482;28;20052;-76
2024/02/25 06:53:03;;;;;;;10.75;7.30;;;;;;;11.17;100.00;100627.06;5060579;28;20408;-76
2024/02/25 06:55:30;;;;;;;9.70;6.68;;;;;;;10.96;100.00;100603.41;5059520;28;20101;-75
2024/02/25 06:57:56;;;;;;;15.13;9.73;;;;;;;11.56;100.00;100725.16;5051352;28;20041;-75
2024/02/25 07:00:21;;;;;;;10.68;8.13;;;;;;;11.41;100.00;100694.50;5066650;28;20031;-75
2024/02/25 07:02:47;;;;;;;9.30;7.35;;;;;;;10.88;100.00;100607.75;5059264;28;20029;-75
2024/02/25 07:05:12;;;;;;;8.88;8.07;;;;;;;11.55;100.00;100739.19;5057553;28;20083;-75
2024/02/25 07:07:38;;;;;;;16.40;12.88;;;;;;;11.59;100.00;100754.09;5063034;28;20040;-76
2024/02/25 07:10:05;;;;;;;9.05;8.20;;;;;;;11.00;100.00;100647.16;5057040;28;20052;-75
2024/02/25 07:12:30;;;;;;;12.45;9.45;;;;;;;10.88;100.00;100621.75;5058417;28;20129;-75
2024/02/25 07:14:56;;;;;;;10.80;9.77;;;;;;;11.57;100.00;100732.19;5059784;28;20075;-76
2024/02/25 07:17:22;;;;;;;8.75;7.75;;;;;;;11.39;100.00;100730.41;5061181;28;20045;-76
2024/02/25 07:19:47;;;;;;;7.32;6.63;;;;;;;11.41;100.00;100719.91;5062381;28;20449;-75
2024/02/25 07:22:13;;;;;;;12.98;9.10;;;;;;;11.04;100.00;100648.94;5059784;28;20036;-77
2024/02/25 07:24:41;;;;;;;10.27;8.45;;;;;;;11.60;100.00;100749.72;5058794;28;20481;-75
2024/02/25 07:27:07;;;;;;;7.93;7.18;;;;;;;11.15;100.00;100667.34;5060978;28;20041;-75
2024/02/25 07:29:32;;;;;;;8.40;7.38;;;;;;;10.99;100.00;100640.16;5053761;28;20072;-75
2024/02/25 07:31:58;;;;;;;10.63;8.80;;;;;;;11.41;100.00;100751.44;5057651;28;20109;-78
2024/02/25 07:34:24;;;;;;;7.50;5.40;;;;;;;11.44;100.00;100748.81;5063037;28;20094;-75
2024/02/25 07:36:50;;;;;;;11.50;8.13;;;;;;;11.40;100.00;100710.25;5072255;28;20052;-74
2024/02/25 07:39:16;;;;;;;12.52;9.90;;;;;;;11.01;100.00;100656.81;5084042;28;20123;-75
2024/02/25 07:41:47;;;;;;;10.02;9.02;;;;;;;11.47;100.00;100740.97;5085340;28;20445;-76
2024/02/25 07:44:13;;;;;;;9.93;8.38;;;;;;;11.46;100.00;100720.78;5082139;28;20036;-74
2024/02/25 07:46:39;;;;;;;19.20;10.82;;;;;;;11.51;100.00;100716.41;5079902;28;20089;-76
2024/02/25 07:49:04;;;;;;;11.30;10.05;;;;;;;11.17;100.00;100634.94;5085586;28;20058;-75
2024/02/25 07:51:34;;;;;;;10.50;9.43;;;;;;;11.70;100.00;100725.19;5085337;28;20058;-76
2024/02/25 07:54:00;;;;;;;11.27;8.05;;;;;;;11.51;100.00;100690.13;5089331;28;20474;-76
2024/02/25 07:56:27;;;;;;;12.35;11.10;;;;;;;11.85;100.00;100742.75;5081239;28;20134;-75
2024/02/25 07:58:53;;;;;;;8.70;7.88;;;;;;;11.75;100.00;100723.47;5079493;28;20069;-75
2024/02/25 08:01:19;;;;;;;6.68;5.95;;;;;;;11.49;100.00;100706.78;5084956;28;20430;-75
2024/02/25 08:03:45;;;;;;;14.73;11.02;;;;;;;10.91;100.00;100642.78;5087362;28;20147;-74
2024/02/25 08:06:12;;;;;;;11.88;10.52;;;;;;;10.81;100.00;100627.88;5077326;28;20043;-74
2024/02/25 08:08:41;;;;;;;14.15;9.18;;;;;;;11.97;100.00;100731.38;5076735;28;20036;-73
2024/02/25 08:11:06;;;;;;;8.50;6.82;;;;;;;10.98;100.00;100620.91;5082290;28;20078;-75
2024/02/25 08:13:32;;;;;;;10.88;8.70;;;;;;;11.80;100.00;100718.22;5077197;28;20051;-75
2024/02/25 08:15:58;;;;;;;9.07;7.22;;;;;;;11.68;100.00;100645.44;5074778;28;20056;-75
2024/02/25 08:18:23;;;;;;;9.10;8.23;;;;;;;11.98;100.00;100719.97;5061064;28;20358;-75
2024/02/25 08:20:49;;;;;;;8.95;8.07;;;;;;;11.66;100.00;100663.00;5076580;28;20040;-75
2024/02/25 08:23:15;;;;;;;12.00;10.88;;;;;;;12.16;100.00;100714.69;5085413;28;20488;-77
2024/02/25 08:25:41;;;;;;;12.77;9.32;;;;;;;11.83;100.00;100641.94;5083797;28;20076;-76
2024/02/25 08:28:07;;;;;;;11.75;9.35;;;;;;;12.43;100.00;100718.13;5077363;28;20078;-74
2024/02/25 08:30:34;;;;;;;9.02;8.13;;;;;;;12.42;100.00;100697.97;5079136;28;20745;-74
2024/02/25 08:32:59;;;;;;;11.15;9.88;;;;;;;12.63;100.00;100710.19;5068118;28;20044;-74
2024/02/25 08:35:25;;;;;;;8.98;7.90;;;;;;;12.20;100.00;100648.03;5057532;28;20036;-73
2024/02/25 08:37:52;;;;;;;10.35;9.40;;;;;;;12.63;100.00;100708.41;5056956;28;20049;-74
2024/02/25 08:40:21;;;;;;;6.93;6.22;;;;;;;11.77;100.00;100607.75;5062535;28;20056;-75
2024/02/25 08:42:46;;;;;;;19.27;9.13;;;;;;;12.11;100.00;100590.19;5068319;28;20048;-74
2024/02/25 08:45:12;;;;;;;10.30;7.82;;;;;;;12.01;100.00;100612.13;5058350;28;20823;-73
2024/02/25 08:47:38;;;;;;;9.88;8.98;;;;;;;12.67;100.00;100673.31;5060546;28;20029;-75
2024/02/25 08:50:04;;;;;;;7.03;6.35;;;;;;;12.93;100.00;100681.97;5056589;28;20127;-75
2024/02/25 08:52:29;;;;;;;9.10;8.25;;;;;;;12.74;100.00;100657.50;5053878;28;20057;-73
2024/02/25 08:54:55;;;;;;;8.80;7.85;;;;;;;12.92;100.00;100696.00;5055205;28;20052;-74
2024/02/25 08:57:21;;;;;;;8.15;7.38;;;;;;;12.99;100.00;100692.44;5044741;28;20672;-76
2024/02/25 08:59:47;;;;;;;8.15;7.45;;;;;;;12.79;100.00;100647.81;5047167;28;20028;-73
2024/02/25 09:02:13;;;;;;;7.25;6.65;;;;;;;12.80;100.00;100646.91;5057779;28;20053;-74
2024/02/25 09:04:39;;;;;;;13.48;8.68;;;;;;;13.10;100.00;100693.25;5062586;28;20622;-74
2024/02/25 09:07:04;;;;;;;8.93;8.13;;;;;;;12.57;100.00;100587.38;5056349;28;20060;-74
2024/02/25 09:09:31;;;;;;;9.10;8.18;;;;;;;13.18;100.00;100688.84;5054394;28;20075;-74
2024/02/25 09:11:57;;;;;;;12.63;10.57;;;;;;;13.13;100.00;100669.53;5063260;28;20041;-73
2024/02/25 09:14:23;;;;;;;8.23;7.53;;;;;;;12.97;100.00;100673.13;5062473;28;20052;-74
2024/02/25 09:16:48;;;;;;;8.88;8.15;;;;;;;12.48;100.00;100557.56;5043112;28;20048;-75
2024/02/25 09:19:15;;;;;;;6.88;5.75;;;;;;;13.06;100.00;100662.56;5056653;28;20515;-78
2024/02/25 09:21:42;;;;;;;10.20;8.82;;;;;;;12.89;100.00;100652.13;5056486;28;20523;-76
2024/02/25 09:24:08;;;;;;;12.30;8.05;;;;;;;12.69;100.00;100641.72;5062700;28;20085;-78
2024/02/25 09:26:33;;;;;;;12.25;9.23;;;;;;;12.45;100.00;100632.16;5055135;28;20060;-77
2024/02/25 09:28:59;;;;;;;10.65;7.70;;;;;;;12.64;100.00;100591.72;5064936;28;20123;-75
2024/02/25 09:31:25;;;;;;;11.20;8.05;;;;;;;12.62;100.00;100547.84;5061183;28;20060;-75
2024/02/25 09:33:52;;;;;;;9.68;8.20;;;;;;;13.08;100.00;100577.34;5080720;28;20509;-75
2024/02/25 09:36:23;;;;;;;10.70;9.77;;;;;;;12.91;100.00;100525.69;5082923;28;20716;-76
2024/02/25 09:38:55;;;;;;;8.60;7.43;;;;;;;12.73;100.00;100501.25;5067269;28;20044;-77
2024/02/25 09:41:30;;;;;;;8.32;7.53;;;;;;;12.87;100.00;100514.31;5065823;28;20041;-76
2024/02/25 09:43:56;;;;;;;7.85;6.93;;;;;;;13.27;100.00;100540.31;5065724;28;20098;-77
2024/02/25 09:46:25;;;;;;;9.60;6.93;;;;;;;13.32;100.00;100529.75;5084275;28;20036;-77
2024/02/25 09:48:54;;;;;;;6.65;6.03;;;;;;;13.69;100.00;100581.22;5088459;28;20036;-76
2024/02/25 09:51:24;;;;;;;8.88;7.60;;;;;;;13.86;100.00;100581.09;5069612;28;20067;-76
2024/02/25 09:53:52;;;;;;;10.80;7.70;;;;;;;13.88;100.00;100589.84;5083093;28;20024;-76
2024/02/25 09:56:18;;;;;;;10.18;7.43;;;;;;;13.77;100.00;100575.03;5082937;28;20043;-76
2024/02/25 09:58:44;;;;;;;8.75;7.88;;;;;;;13.96;100.00;100597.69;5084381;28;20048;-76
2024/02/25 10:01:10;;;;;;;7.43;6.82;;;;;;;13.38;100.00;100493.69;5080771;28;20046;-76
2024/02/25 10:03:37;;;;;;;7.20;5.25;;;;;;;13.62;100.00;100518.03;5069807;28;20052;-78
2024/02/25 10:06:03;;;;;;;6.63;5.63;;;;;;;14.11;100.00;100607.19;5075932;28;20063;-77
2024/02/25 10:08:42;;;;;;;4.03;3.58;;;;;;;14.06;100.00;100627.47;5078663;28;20459;-76
2024/02/25 10:11:10;;;;;;;7.10;6.40;;;;;;;13.61;100.00;100545.31;5081389;28;20036;-76
2024/02/25 10:13:36;;;;;;;11.65;6.88;;;;;;;14.03;100.00;100622.22;5075749;28;20074;-77
2024/02/25 10:16:02;;;;;;;6.13;5.53;;;;;;;14.00;100.00;100632.81;5076209;28;20119;-75
2024/02/25 10:18:27;;;;;;;7.65;6.93;;;;;;;13.99;100.00;100618.75;5056901;28;20038;-76
2024/02/25 10:21:07;;;;;;;6.55;5.95;;;;;;;13.65;100.00;100541.72;5079446;28;20476;-76
2024/02/25 10:23:36;;;;;;;10.30;5.45;;;;;;;14.25;100.00;100625.50;5076007;28;20117;-77
2024/02/25 10:26:23;;;;;;;6.13;4.85;;;;;;;14.24;100.00;100606.16;5068538;28;20147;-75
2024/02/25 10:29:01;;;;;;;11.43;4.35;;;;;;;13.72;100.00;100519.69;5073895;28;20097;-76
2024/02/25 10:31:26;;;;;;;2.90;2.25;;;;;;;14.09;100.00;100569.38;5073585;28;20048;-74
2024/02/25 10:33:56;;;;;;;6.40;5.00;;;;;;;14.28;100.00;100601.69;5074219;28;20198;-77
2024/02/25 10:36:25;;;;;;;4.85;4.28;;;;;;;13.78;100.00;100505.56;5077446;28;20063;-75
2024/02/25 10:38:55;;;;;;;5.28;3.30;;;;;;;14.24;100.00;100586.81;5076842;28;20132;-75
2024/02/25 10:41:22;;;;;;;4.57;4.13;;;;;;;14.36;100.00;100594.56;5071897;28;20083;-76
2024/02/25 10:43:52;;;;;;;6.80;4.80;;;;;;;14.28;100.00;100555.06;5078616;28;20081;-75
2024/02/25 10:46:41;;;;;;;4.43;3.78;;;;;;;14.44;100.00;100586.53;5047161;28;20048;-77
2024/02/25 10:49:08;;;;;;;5.32;3.35;;;;;;;13.82;100.00;100491.44;5076129;28;20056;-76
2024/02/25 10:51:35;;;;;;;4.43;3.47;;;;;;;14.41;100.00;100578.66;5077114;28;20080;-75
2024/02/25 10:54:01;;;;;;;6.90;5.57;;;;;;;14.29;100.00;100571.78;5073248;28;20039;-75
2024/02/25 10:56:29;;;;;;;2.75;2.53;;;;;;;13.35;100.00;100414.66;5071406;28;20036;-73
2024/02/25 10:58:56;;;;;;;5.40;3.05;;;;;;;13.61;100.00;100464.44;5073882;28;20060;-76
2024/02/25 11:01:24;;;;;;;5.38;3.95;;;;;;;14.21;100.00;100590.38;5069970;28;20052;-76
2024/02/25 11:03:50;;;;;;;4.47;4.07;;;;;;;13.66;100.00;100490.75;5075081;28;20050;-76
2024/02/25 11:06:39;;;;;;;3.70;3.35;;;;;;;14.36;100.00;100589.28;5061506;28;20028;-76
2024/02/25 11:09:10;;;;;;;2.95;2.65;;;;;;;13.64;100.00;100487.25;5080611;28;20707;-77
2024/02/25 11:11:36;;;;;;;4.85;3.42;;;;;;;13.93;100.00;100551.09;5077299;28;20445;-75